Airfield :
LOGIN :

Register | Disclaimer

   EN    FR    IT 

 










Legend :    VFR   Marginal VFR   IFR   Intensive IFR   Very Intensive IFR
Visi :
Ceiling :
>= 8 km
>= 3000ft
5 to 8 km
1000 to 3000 ft
1500m to 5 km
500 to 1000 ft
800 to 1500m
200 to 500 ft
< 800m
< 200 ft
Symbols :   Thunderstorms  Fog  Heavy snow  Heavy precipitations  Wind > 20 kt
SIGMETs :     Misc.  Thunderstorms  Icing  Turbulence  Mountain Waves  Volcanic Ashes







- Airport Elevation : 45 ft
- IATA code : CEG
- Download approach charts


EGNR - Hawarden Chester

CURRENT METAR :
  • 241320Z 16011KT 9999 FEW022 18/13 Q1017

EXPIRED METARs :
  • 241250Z 16011KT 9999 FEW022 18/13 Q1017
  • 241220Z 16012KT 9999 FEW022 17/12 Q1017
  • 241150Z 16010KT 120V190 9999 FEW022 17/12 Q1017
  • 241120Z 15009KT 9999 FEW022 16/12 Q1017
  • 241050Z 15009KT 9999 FEW022 16/12 Q1018

TAF TAF EGNR
Valid from the 24 at 12:00 until the 24 at 18:00 UTC


241106Z 2412/2418 15008KT 9999 FEW040
PROB30
TEMPO 2412/2418 8000 RA BKN014
No reported NOTAMs for that airfield.



MET'MAP, your aeronautical weather chart ! - Copyright ORBIFLY December 2007 - Disclaimer

ORBIFLY MET'MAP TEAM :

Programming & Development : Alexandra Zaïnal
Concept & Development : Baudouin d'Aumeries
Co-Development & Prog : Marc-Olivier Méhu
Technical & hardware support : Manuel Goepfert

Contact : metmap@orbifly.com




SOURCES & CREDITS :

   NOAA